sensor_id;sensor_type;location;lat;lon;timestamp;P1;durP1;ratioP1;P2;durP2;ratioP2
10769;SDS011;5437;50.852;4.438;2022-12-05T00:01:13;43.10;;;24.40;;
10769;SDS011;5437;50.852;4.438;2022-12-05T00:03:40;44.58;;;24.27;;
10769;SDS011;5437;50.852;4.438;2022-12-05T00:06:06;43.45;;;24.08;;
10769;SDS011;5437;50.852;4.438;2022-12-05T00:08:32;45.03;;;24.67;;
10769;SDS011;5437;50.852;4.438;2022-12-05T00:10:58;48.20;;;23.17;;
10769;SDS011;5437;50.852;4.438;2022-12-05T00:13:24;51.60;;;24.15;;
10769;SDS011;5437;50.852;4.438;2022-12-05T00:15:50;44.15;;;24.17;;
10769;SDS011;5437;50.852;4.438;2022-12-05T00:18:16;44.53;;;23.75;;
10769;SDS011;5437;50.852;4.438;2022-12-05T00:20:45;40.55;;;22.23;;
10769;SDS011;5437;50.852;4.438;2022-12-05T00:23:11;43.65;;;23.35;;
10769;SDS011;5437;50.852;4.438;2022-12-05T00:25:38;40.08;;;22.75;;
10769;SDS011;5437;50.852;4.438;2022-12-05T00:28:04;45.20;;;23.08;;
10769;SDS011;5437;50.852;4.438;2022-12-05T00:30:30;38.58;;;21.30;;
10769;SDS011;5437;50.852;4.438;2022-12-05T00:32:56;37.78;;;20.73;;
10769;SDS011;5437;50.852;4.438;2022-12-05T00:35:22;40.03;;;22.58;;
10769;SDS011;5437;50.852;4.438;2022-12-05T00:37:48;41.72;;;21.88;;
10769;SDS011;5437;50.852;4.438;2022-12-05T00:40:14;40.35;;;22.17;;
10769;SDS011;5437;50.852;4.438;2022-12-05T00:42:42;36.83;;;20.30;;
10769;SDS011;5437;50.852;4.438;2022-12-05T00:45:08;38.42;;;21.58;;
10769;SDS011;5437;50.852;4.438;2022-12-05T00:47:34;35.90;;;20.85;;
10769;SDS011;5437;50.852;4.438;2022-12-05T00:50:01;37.42;;;20.48;;
10769;SDS011;5437;50.852;4.438;2022-12-05T00:52:27;38.05;;;20.50;;
10769;SDS011;5437;50.852;4.438;2022-12-05T00:54:53;40.92;;;21.83;;
10769;SDS011;5437;50.852;4.438;2022-12-05T00:57:19;34.42;;;20.08;;
10769;SDS011;5437;50.852;4.438;2022-12-05T00:59:45;41.17;;;21.40;;
10769;SDS011;5437;50.852;4.438;2022-12-05T01:02:11;36.33;;;20.58;;
10769;SDS011;5437;50.852;4.438;2022-12-05T01:04:37;38.78;;;19.85;;
10769;SDS011;5437;50.852;4.438;2022-12-05T01:07:03;35.83;;;21.13;;
10769;SDS011;5437;50.852;4.438;2022-12-05T01:09:29;38.65;;;20.90;;
10769;SDS011;5437;50.852;4.438;2022-12-05T01:11:56;36.65;;;20.75;;
10769;SDS011;5437;50.852;4.438;2022-12-05T01:14:22;34.78;;;18.60;;
10769;SDS011;5437;50.852;4.438;2022-12-05T01:16:49;33.05;;;18.92;;
10769;SDS011;5437;50.852;4.438;2022-12-05T01:19:17;35.35;;;19.15;;
10769;SDS011;5437;50.852;4.438;2022-12-05T01:21:43;38.60;;;19.85;;
10769;SDS011;5437;50.852;4.438;2022-12-05T01:24:10;34.42;;;19.48;;
10769;SDS011;5437;50.852;4.438;2022-12-05T01:26:36;36.38;;;19.73;;
10769;SDS011;5437;50.852;4.438;2022-12-05T01:29:03;36.40;;;19.90;;
10769;SDS011;5437;50.852;4.438;2022-12-05T01:31:30;36.13;;;19.40;;
10769;SDS011;5437;50.852;4.438;2022-12-05T01:33:57;40.45;;;20.05;;
10769;SDS011;5437;50.852;4.438;2022-12-05T01:36:24;32.28;;;19.50;;
10769;SDS011;5437;50.852;4.438;2022-12-05T01:38:51;37.80;;;21.48;;
10769;SDS011;5437;50.852;4.438;2022-12-05T01:41:19;35.75;;;20.20;;
10769;SDS011;5437;50.852;4.438;2022-12-05T01:43:56;35.35;;;20.42;;
10769;SDS011;5437;50.852;4.438;2022-12-05T01:46:22;42.67;;;20.88;;
10769;SDS011;5437;50.852;4.438;2022-12-05T01:48:49;36.42;;;19.77;;
10769;SDS011;5437;50.852;4.438;2022-12-05T01:51:15;34.22;;;20.45;;
10769;SDS011;5437;50.852;4.438;2022-12-05T01:53:41;41.78;;;21.33;;
10769;SDS011;5437;50.852;4.438;2022-12-05T01:56:07;42.50;;;21.52;;
10769;SDS011;5437;50.852;4.438;2022-12-05T01:58:34;42.42;;;21.65;;
10769;SDS011;5437;50.852;4.438;2022-12-05T02:01:01;40.97;;;21.17;;
10769;SDS011;5437;50.852;4.438;2022-12-05T02:03:27;38.58;;;20.90;;
10769;SDS011;5437;50.852;4.438;2022-12-05T02:05:53;44.28;;;22.88;;
10769;SDS011;5437;50.852;4.438;2022-12-05T02:08:21;44.63;;;22.20;;
10769;SDS011;5437;50.852;4.438;2022-12-05T02:10:51;42.83;;;21.88;;
10769;SDS011;5437;50.852;4.438;2022-12-05T02:13:31;45.97;;;22.27;;
10769;SDS011;5437;50.852;4.438;2022-12-05T02:16:00;42.88;;;21.67;;
10769;SDS011;5437;50.852;4.438;2022-12-05T02:18:44;41.75;;;21.98;;
10769;SDS011;5437;50.852;4.438;2022-12-05T02:23:54;48.78;;;23.27;;
10769;SDS011;5437;50.852;4.438;2022-12-05T02:31:52;44.72;;;22.38;;
10769;SDS011;5437;50.852;4.438;2022-12-05T02:34:23;43.13;;;21.88;;
10769;SDS011;5437;50.852;4.438;2022-12-05T02:37:02;42.28;;;22.50;;
10769;SDS011;5437;50.852;4.438;2022-12-05T02:42:00;43.53;;;21.60;;
10769;SDS011;5437;50.852;4.438;2022-12-05T02:44:32;40.20;;;21.90;;
10769;SDS011;5437;50.852;4.438;2022-12-05T02:47:00;44.83;;;22.38;;
10769;SDS011;5437;50.852;4.438;2022-12-05T02:49:29;40.20;;;22.20;;
10769;SDS011;5437;50.852;4.438;2022-12-05T02:51:57;45.20;;;22.20;;
10769;SDS011;5437;50.852;4.438;2022-12-05T02:54:24;45.78;;;22.27;;
10769;SDS011;5437;50.852;4.438;2022-12-05T02:56:51;38.35;;;21.42;;
10769;SDS011;5437;50.852;4.438;2022-12-05T02:59:18;41.22;;;21.95;;
10769;SDS011;5437;50.852;4.438;2022-12-05T03:01:44;46.25;;;21.98;;
10769;SDS011;5437;50.852;4.438;2022-12-05T03:04:13;46.65;;;22.83;;
10769;SDS011;5437;50.852;4.438;2022-12-05T03:09:17;44.53;;;21.58;;
10769;SDS011;5437;50.852;4.438;2022-12-05T03:11:46;44.85;;;22.95;;
10769;SDS011;5437;50.852;4.438;2022-12-05T03:14:14;42.70;;;22.75;;
10769;SDS011;5437;50.852;4.438;2022-12-05T03:16:47;43.28;;;22.00;;
10769;SDS011;5437;50.852;4.438;2022-12-05T03:19:17;41.45;;;21.75;;
10769;SDS011;5437;50.852;4.438;2022-12-05T03:21:47;40.13;;;21.75;;
10769;SDS011;5437;50.852;4.438;2022-12-05T03:24:15;40.63;;;21.50;;
10769;SDS011;5437;50.852;4.438;2022-12-05T03:26:48;39.42;;;21.73;;
10769;SDS011;5437;50.852;4.438;2022-12-05T03:29:21;43.25;;;22.27;;
10769;SDS011;5437;50.852;4.438;2022-12-05T03:31:56;40.88;;;21.85;;
10769;SDS011;5437;50.852;4.438;2022-12-05T03:34:30;44.88;;;22.90;;
10769;SDS011;5437;50.852;4.438;2022-12-05T03:36:57;40.83;;;22.23;;
10769;SDS011;5437;50.852;4.438;2022-12-05T03:39:28;41.88;;;21.75;;
10769;SDS011;5437;50.852;4.438;2022-12-05T03:44:29;40.45;;;21.45;;
10769;SDS011;5437;50.852;4.438;2022-12-05T03:47:05;43.10;;;21.55;;
10769;SDS011;5437;50.852;4.438;2022-12-05T03:49:34;38.40;;;21.13;;
10769;SDS011;5437;50.852;4.438;2022-12-05T03:54:30;37.55;;;20.25;;
10769;SDS011;5437;50.852;4.438;2022-12-05T03:57:02;36.03;;;20.10;;
10769;SDS011;5437;50.852;4.438;2022-12-05T03:59:47;36.22;;;19.83;;
10769;SDS011;5437;50.852;4.438;2022-12-05T04:02:17;40.33;;;20.67;;
10769;SDS011;5437;50.852;4.438;2022-12-05T04:04:47;38.00;;;19.33;;
10769;SDS011;5437;50.852;4.438;2022-12-05T04:07:15;37.72;;;20.73;;
10769;SDS011;5437;50.852;4.438;2022-12-05T04:09:43;33.58;;;20.08;;
10769;SDS011;5437;50.852;4.438;2022-12-05T04:12:11;36.90;;;20.55;;
10769;SDS011;5437;50.852;4.438;2022-12-05T04:14:43;40.38;;;20.67;;
10769;SDS011;5437;50.852;4.438;2022-12-05T04:17:14;36.78;;;20.52;;
10769;SDS011;5437;50.852;4.438;2022-12-05T04:19:46;35.42;;;20.25;;
10769;SDS011;5437;50.852;4.438;2022-12-05T04:22:31;32.22;;;18.48;;
10769;SDS011;5437;50.852;4.438;2022-12-05T04:24:58;37.00;;;19.42;;
10769;SDS011;5437;50.852;4.438;2022-12-05T04:30:39;36.13;;;19.10;;
10769;SDS011;5437;50.852;4.438;2022-12-05T04:35:42;32.50;;;18.83;;
10769;SDS011;5437;50.852;4.438;2022-12-05T04:38:17;31.90;;;18.52;;
10769;SDS011;5437;50.852;4.438;2022-12-05T04:40:48;29.38;;;17.88;;
10769;SDS011;5437;50.852;4.438;2022-12-05T04:43:18;35.28;;;18.98;;
10769;SDS011;5437;50.852;4.438;2022-12-05T04:45:44;32.80;;;18.58;;
10769;SDS011;5437;50.852;4.438;2022-12-05T04:48:13;30.05;;;18.05;;
10769;SDS011;5437;50.852;4.438;2022-12-05T04:50:39;34.25;;;18.13;;
10769;SDS011;5437;50.852;4.438;2022-12-05T04:53:06;32.95;;;19.27;;
10769;SDS011;5437;50.852;4.438;2022-12-05T04:55:33;30.70;;;18.60;;
10769;SDS011;5437;50.852;4.438;2022-12-05T04:58:19;32.67;;;19.13;;
10769;SDS011;5437;50.852;4.438;2022-12-05T05:00:49;34.17;;;19.02;;
10769;SDS011;5437;50.852;4.438;2022-12-05T05:03:24;32.03;;;17.65;;
10769;SDS011;5437;50.852;4.438;2022-12-05T05:05:52;33.45;;;19.35;;
10769;SDS011;5437;50.852;4.438;2022-12-05T05:08:21;35.53;;;18.55;;
10769;SDS011;5437;50.852;4.438;2022-12-05T05:11:10;30.42;;;18.55;;
10769;SDS011;5437;50.852;4.438;2022-12-05T05:13:34;35.22;;;20.10;;
10769;SDS011;5437;50.852;4.438;2022-12-05T05:16:00;34.13;;;20.15;;
10769;SDS011;5437;50.852;4.438;2022-12-05T05:18:26;35.63;;;19.77;;
10769;SDS011;5437;50.852;4.438;2022-12-05T05:20:52;39.72;;;20.52;;
10769;SDS011;5437;50.852;4.438;2022-12-05T05:23:18;35.10;;;20.45;;
10769;SDS011;5437;50.852;4.438;2022-12-05T05:25:44;36.28;;;20.67;;
10769;SDS011;5437;50.852;4.438;2022-12-05T05:28:10;32.97;;;19.08;;
10769;SDS011;5437;50.852;4.438;2022-12-05T05:30:36;35.50;;;19.98;;
10769;SDS011;5437;50.852;4.438;2022-12-05T05:33:02;37.95;;;20.88;;
10769;SDS011;5437;50.852;4.438;2022-12-05T05:35:28;37.85;;;20.13;;
10769;SDS011;5437;50.852;4.438;2022-12-05T05:37:54;34.65;;;19.85;;
10769;SDS011;5437;50.852;4.438;2022-12-05T05:40:20;35.50;;;20.48;;
10769;SDS011;5437;50.852;4.438;2022-12-05T05:42:47;37.72;;;20.63;;
10769;SDS011;5437;50.852;4.438;2022-12-05T05:45:14;36.65;;;21.10;;
10769;SDS011;5437;50.852;4.438;2022-12-05T05:47:40;37.05;;;20.98;;
10769;SDS011;5437;50.852;4.438;2022-12-05T05:50:07;37.70;;;20.58;;
10769;SDS011;5437;50.852;4.438;2022-12-05T05:52:34;40.72;;;21.27;;
10769;SDS011;5437;50.852;4.438;2022-12-05T05:55:00;37.95;;;20.30;;
10769;SDS011;5437;50.852;4.438;2022-12-05T05:57:26;40.33;;;21.35;;
10769;SDS011;5437;50.852;4.438;2022-12-05T05:59:53;41.88;;;21.95;;
10769;SDS011;5437;50.852;4.438;2022-12-05T06:02:19;40.30;;;21.75;;
10769;SDS011;5437;50.852;4.438;2022-12-05T06:04:45;35.90;;;20.92;;
10769;SDS011;5437;50.852;4.438;2022-12-05T06:07:11;38.50;;;21.77;;
10769;SDS011;5437;50.852;4.438;2022-12-05T06:09:37;37.45;;;21.05;;
10769;SDS011;5437;50.852;4.438;2022-12-05T06:12:03;38.97;;;21.23;;
10769;SDS011;5437;50.852;4.438;2022-12-05T06:14:29;39.72;;;21.33;;
10769;SDS011;5437;50.852;4.438;2022-12-05T06:16:55;39.67;;;20.58;;
10769;SDS011;5437;50.852;4.438;2022-12-05T06:19:21;35.63;;;21.15;;
10769;SDS011;5437;50.852;4.438;2022-12-05T06:21:48;35.38;;;20.23;;
10769;SDS011;5437;50.852;4.438;2022-12-05T06:24:14;37.72;;;20.85;;
10769;SDS011;5437;50.852;4.438;2022-12-05T06:26:40;41.55;;;21.40;;
10769;SDS011;5437;50.852;4.438;2022-12-05T06:29:07;37.85;;;20.27;;
10769;SDS011;5437;50.852;4.438;2022-12-05T06:31:33;38.25;;;21.15;;
10769;SDS011;5437;50.852;4.438;2022-12-05T06:34:02;41.35;;;21.08;;
10769;SDS011;5437;50.852;4.438;2022-12-05T06:36:28;39.83;;;21.75;;
10769;SDS011;5437;50.852;4.438;2022-12-05T06:38:55;36.15;;;21.17;;
10769;SDS011;5437;50.852;4.438;2022-12-05T06:41:21;39.55;;;21.75;;
10769;SDS011;5437;50.852;4.438;2022-12-05T06:43:50;36.70;;;20.58;;
10769;SDS011;5437;50.852;4.438;2022-12-05T06:46:18;38.00;;;20.50;;
10769;SDS011;5437;50.852;4.438;2022-12-05T06:48:44;35.53;;;21.17;;
10769;SDS011;5437;50.852;4.438;2022-12-05T06:51:10;37.70;;;20.48;;
10769;SDS011;5437;50.852;4.438;2022-12-05T06:53:37;38.72;;;21.38;;
10769;SDS011;5437;50.852;4.438;2022-12-05T06:56:04;41.85;;;21.98;;
10769;SDS011;5437;50.852;4.438;2022-12-05T06:58:32;40.22;;;21.40;;
10769;SDS011;5437;50.852;4.438;2022-12-05T07:00:58;45.83;;;30.33;;
10769;SDS011;5437;50.852;4.438;2022-12-05T07:03:42;37.38;;;20.77;;
10769;SDS011;5437;50.852;4.438;2022-12-05T07:06:09;42.00;;;22.65;;
10769;SDS011;5437;50.852;4.438;2022-12-05T07:08:35;39.22;;;22.10;;
10769;SDS011;5437;50.852;4.438;2022-12-05T07:11:01;36.80;;;20.75;;
10769;SDS011;5437;50.852;4.438;2022-12-05T07:13:27;37.25;;;21.83;;
10769;SDS011;5437;50.852;4.438;2022-12-05T07:15:53;39.85;;;22.45;;
10769;SDS011;5437;50.852;4.438;2022-12-05T07:18:22;40.13;;;22.33;;
10769;SDS011;5437;50.852;4.438;2022-12-05T07:20:54;36.10;;;20.20;;
10769;SDS011;5437;50.852;4.438;2022-12-05T07:23:20;32.97;;;19.38;;
10769;SDS011;5437;50.852;4.438;2022-12-05T07:25:46;35.63;;;21.10;;
10769;SDS011;5437;50.852;4.438;2022-12-05T07:28:12;36.70;;;20.65;;
10769;SDS011;5437;50.852;4.438;2022-12-05T07:30:38;37.63;;;20.98;;
10769;SDS011;5437;50.852;4.438;2022-12-05T07:33:04;38.83;;;21.35;;
10769;SDS011;5437;50.852;4.438;2022-12-05T07:35:30;34.60;;;20.05;;
10769;SDS011;5437;50.852;4.438;2022-12-05T07:37:56;34.25;;;19.15;;
10769;SDS011;5437;50.852;4.438;2022-12-05T07:40:22;36.22;;;20.02;;
10769;SDS011;5437;50.852;4.438;2022-12-05T07:42:49;37.60;;;20.13;;
10769;SDS011;5437;50.852;4.438;2022-12-05T07:45:15;38.30;;;20.55;;
10769;SDS011;5437;50.852;4.438;2022-12-05T07:47:41;37.75;;;20.98;;
10769;SDS011;5437;50.852;4.438;2022-12-05T07:50:07;38.13;;;21.42;;
10769;SDS011;5437;50.852;4.438;2022-12-05T07:52:33;40.60;;;21.33;;
10769;SDS011;5437;50.852;4.438;2022-12-05T07:54:59;41.42;;;22.10;;
10769;SDS011;5437;50.852;4.438;2022-12-05T07:57:25;42.40;;;21.38;;
10769;SDS011;5437;50.852;4.438;2022-12-05T07:59:53;39.35;;;20.80;;
10769;SDS011;5437;50.852;4.438;2022-12-05T08:02:19;41.90;;;23.23;;
10769;SDS011;5437;50.852;4.438;2022-12-05T08:04:45;38.17;;;20.73;;
10769;SDS011;5437;50.852;4.438;2022-12-05T08:07:11;39.10;;;20.58;;
10769;SDS011;5437;50.852;4.438;2022-12-05T08:09:37;36.00;;;20.70;;
10769;SDS011;5437;50.852;4.438;2022-12-05T08:12:03;36.58;;;20.45;;
10769;SDS011;5437;50.852;4.438;2022-12-05T08:14:29;38.05;;;20.90;;
10769;SDS011;5437;50.852;4.438;2022-12-05T08:16:55;38.17;;;21.45;;
10769;SDS011;5437;50.852;4.438;2022-12-05T08:19:21;38.28;;;21.73;;
10769;SDS011;5437;50.852;4.438;2022-12-05T08:21:47;32.95;;;19.83;;
10769;SDS011;5437;50.852;4.438;2022-12-05T08:24:15;37.35;;;20.50;;
10769;SDS011;5437;50.852;4.438;2022-12-05T08:26:41;36.03;;;20.48;;
10769;SDS011;5437;50.852;4.438;2022-12-05T08:29:08;35.05;;;20.35;;
10769;SDS011;5437;50.852;4.438;2022-12-05T08:31:35;38.47;;;22.10;;
10769;SDS011;5437;50.852;4.438;2022-12-05T08:34:01;36.30;;;20.60;;
10769;SDS011;5437;50.852;4.438;2022-12-05T08:36:28;38.00;;;21.48;;
10769;SDS011;5437;50.852;4.438;2022-12-05T08:38:55;31.48;;;19.40;;
10769;SDS011;5437;50.852;4.438;2022-12-05T08:41:22;37.80;;;20.52;;
10769;SDS011;5437;50.852;4.438;2022-12-05T08:43:52;33.70;;;19.27;;
10769;SDS011;5437;50.852;4.438;2022-12-05T08:46:18;32.22;;;18.98;;
10769;SDS011;5437;50.852;4.438;2022-12-05T08:48:44;31.77;;;18.92;;
10769;SDS011;5437;50.852;4.438;2022-12-05T08:51:11;29.42;;;18.35;;
10769;SDS011;5437;50.852;4.438;2022-12-05T08:53:38;28.00;;;17.08;;
10769;SDS011;5437;50.852;4.438;2022-12-05T08:56:05;25.80;;;17.10;;
10769;SDS011;5437;50.852;4.438;2022-12-05T08:58:31;29.40;;;17.30;;
10769;SDS011;5437;50.852;4.438;2022-12-05T09:01:04;26.70;;;17.00;;
10769;SDS011;5437;50.852;4.438;2022-12-05T09:03:31;27.02;;;16.63;;
10769;SDS011;5437;50.852;4.438;2022-12-05T09:08:32;27.90;;;16.88;;
10769;SDS011;5437;50.852;4.438;2022-12-05T09:10:58;25.23;;;16.55;;
10769;SDS011;5437;50.852;4.438;2022-12-05T09:13:24;26.05;;;16.30;;
10769;SDS011;5437;50.852;4.438;2022-12-05T09:15:50;27.30;;;17.58;;
10769;SDS011;5437;50.852;4.438;2022-12-05T09:18:16;27.42;;;18.13;;
10769;SDS011;5437;50.852;4.438;2022-12-05T09:20:42;25.38;;;17.30;;
10769;SDS011;5437;50.852;4.438;2022-12-05T09:23:08;25.85;;;17.45;;
10769;SDS011;5437;50.852;4.438;2022-12-05T09:25:34;27.50;;;18.42;;
10769;SDS011;5437;50.852;4.438;2022-12-05T09:28:00;24.35;;;17.38;;
10769;SDS011;5437;50.852;4.438;2022-12-05T09:30:26;25.63;;;16.60;;
10769;SDS011;5437;50.852;4.438;2022-12-05T09:32:51;26.63;;;17.30;;
10769;SDS011;5437;50.852;4.438;2022-12-05T09:35:18;24.38;;;16.88;;
10769;SDS011;5437;50.852;4.438;2022-12-05T09:37:44;23.77;;;15.40;;
10769;SDS011;5437;50.852;4.438;2022-12-05T09:40:16;21.50;;;15.80;;
10769;SDS011;5437;50.852;4.438;2022-12-05T09:42:47;22.70;;;15.18;;
10769;SDS011;5437;50.852;4.438;2022-12-05T09:45:34;19.25;;;13.55;;
10769;SDS011;5437;50.852;4.438;2022-12-05T09:48:12;19.02;;;13.73;;
10769;SDS011;5437;50.852;4.438;2022-12-05T09:55:50;21.70;;;14.82;;
10769;SDS011;5437;50.852;4.438;2022-12-05T10:06:27;19.73;;;14.48;;
10769;SDS011;5437;50.852;4.438;2022-12-05T10:09:07;18.25;;;13.45;;
10769;SDS011;5437;50.852;4.438;2022-12-05T10:11:50;16.92;;;13.07;;
10769;SDS011;5437;50.852;4.438;2022-12-05T10:14:25;20.20;;;13.75;;
10769;SDS011;5437;50.852;4.438;2022-12-05T10:16:54;18.50;;;13.30;;
10769;SDS011;5437;50.852;4.438;2022-12-05T10:19:23;18.42;;;12.82;;
10769;SDS011;5437;50.852;4.438;2022-12-05T10:24:25;17.63;;;13.45;;
10769;SDS011;5437;50.852;4.438;2022-12-05T10:26:59;15.85;;;12.13;;
10769;SDS011;5437;50.852;4.438;2022-12-05T10:29:33;15.50;;;12.55;;
10769;SDS011;5437;50.852;4.438;2022-12-05T10:34:41;15.73;;;11.85;;
10769;SDS011;5437;50.852;4.438;2022-12-05T10:37:15;17.52;;;12.95;;
10769;SDS011;5437;50.852;4.438;2022-12-05T10:39:41;17.92;;;14.15;;
10769;SDS011;5437;50.852;4.438;2022-12-05T10:42:24;17.67;;;13.15;;
10769;SDS011;5437;50.852;4.438;2022-12-05T10:44:54;18.00;;;13.27;;
10769;SDS011;5437;50.852;4.438;2022-12-05T10:47:21;18.60;;;12.95;;
10769;SDS011;5437;50.852;4.438;2022-12-05T10:49:47;15.95;;;11.93;;
10769;SDS011;5437;50.852;4.438;2022-12-05T10:52:14;16.40;;;12.27;;
10769;SDS011;5437;50.852;4.438;2022-12-05T10:54:44;15.77;;;11.82;;
10769;SDS011;5437;50.852;4.438;2022-12-05T10:57:22;14.43;;;11.98;;
10769;SDS011;5437;50.852;4.438;2022-12-05T10:59:49;15.55;;;11.77;;
10769;SDS011;5437;50.852;4.438;2022-12-05T11:02:28;15.57;;;11.57;;
10769;SDS011;5437;50.852;4.438;2022-12-05T11:04:55;15.00;;;11.68;;
10769;SDS011;5437;50.852;4.438;2022-12-05T11:07:28;14.13;;;10.77;;
10769;SDS011;5437;50.852;4.438;2022-12-05T11:09:54;14.98;;;10.70;;
10769;SDS011;5437;50.852;4.438;2022-12-05T11:12:22;13.45;;;11.07;;
10769;SDS011;5437;50.852;4.438;2022-12-05T11:17:49;13.68;;;10.68;;
10769;SDS011;5437;50.852;4.438;2022-12-05T11:22:54;13.75;;;10.30;;
10769;SDS011;5437;50.852;4.438;2022-12-05T11:27:59;11.63;;;9.27;;
10769;SDS011;5437;50.852;4.438;2022-12-05T11:30:26;14.43;;;9.65;;
10769;SDS011;5437;50.852;4.438;2022-12-05T11:35:37;13.07;;;10.77;;
10769;SDS011;5437;50.852;4.438;2022-12-05T11:38:04;14.77;;;10.73;;
10769;SDS011;5437;50.852;4.438;2022-12-05T11:48:38;11.48;;;9.43;;
10769;SDS011;5437;50.852;4.438;2022-12-05T11:51:12;11.98;;;9.80;;
10769;SDS011;5437;50.852;4.438;2022-12-05T11:56:25;13.80;;;10.52;;
10769;SDS011;5437;50.852;4.438;2022-12-05T12:06:28;12.88;;;9.55;;
10769;SDS011;5437;50.852;4.438;2022-12-05T12:09:06;13.48;;;9.90;;
10769;SDS011;5437;50.852;4.438;2022-12-05T12:11:54;12.23;;;9.20;;
10769;SDS011;5437;50.852;4.438;2022-12-05T12:14:24;12.77;;;9.45;;
10769;SDS011;5437;50.852;4.438;2022-12-05T12:27:46;13.65;;;9.95;;
10769;SDS011;5437;50.852;4.438;2022-12-05T12:30:16;13.93;;;10.68;;
10769;SDS011;5437;50.852;4.438;2022-12-05T12:35:29;12.75;;;10.75;;
10769;SDS011;5437;50.852;4.438;2022-12-05T12:38:12;12.23;;;10.00;;
10769;SDS011;5437;50.852;4.438;2022-12-05T12:40:54;14.18;;;10.85;;
10769;SDS011;5437;50.852;4.438;2022-12-05T12:46:29;13.68;;;10.63;;
10769;SDS011;5437;50.852;4.438;2022-12-05T12:51:19;14.73;;;10.80;;
10769;SDS011;5437;50.852;4.438;2022-12-05T13:04:03;16.10;;;11.43;;
10769;SDS011;5437;50.852;4.438;2022-12-05T13:06:35;15.57;;;12.00;;
10769;SDS011;5437;50.852;4.438;2022-12-05T13:09:05;15.27;;;11.57;;
10769;SDS011;5437;50.852;4.438;2022-12-05T13:11:34;16.25;;;11.85;;
10769;SDS011;5437;50.852;4.438;2022-12-05T13:14:01;15.52;;;12.13;;
10769;SDS011;5437;50.852;4.438;2022-12-05T13:16:30;15.02;;;11.70;;
10769;SDS011;5437;50.852;4.438;2022-12-05T13:18:57;17.67;;;12.90;;
10769;SDS011;5437;50.852;4.438;2022-12-05T13:21:23;14.85;;;11.52;;
10769;SDS011;5437;50.852;4.438;2022-12-05T13:23:51;13.38;;;10.57;;
10769;SDS011;5437;50.852;4.438;2022-12-05T13:26:19;15.02;;;11.23;;
10769;SDS011;5437;50.852;4.438;2022-12-05T13:28:57;13.18;;;10.13;;
10769;SDS011;5437;50.852;4.438;2022-12-05T13:31:37;13.05;;;10.48;;
10769;SDS011;5437;50.852;4.438;2022-12-05T13:34:03;12.02;;;10.07;;
10769;SDS011;5437;50.852;4.438;2022-12-05T13:36:37;13.18;;;9.73;;
10769;SDS011;5437;50.852;4.438;2022-12-05T13:39:22;14.82;;;10.93;;
10769;SDS011;5437;50.852;4.438;2022-12-05T13:42:20;13.15;;;10.65;;
10769;SDS011;5437;50.852;4.438;2022-12-05T13:49:51;14.05;;;10.80;;
10769;SDS011;5437;50.852;4.438;2022-12-05T13:52:20;13.38;;;10.48;;
10769;SDS011;5437;50.852;4.438;2022-12-05T13:54:53;14.70;;;11.02;;
10769;SDS011;5437;50.852;4.438;2022-12-05T14:07:50;15.02;;;11.27;;
10769;SDS011;5437;50.852;4.438;2022-12-05T14:10:20;13.95;;;11.48;;
10769;SDS011;5437;50.852;4.438;2022-12-05T14:12:56;15.13;;;11.63;;
10769;SDS011;5437;50.852;4.438;2022-12-05T14:15:30;16.55;;;11.60;;
10769;SDS011;5437;50.852;4.438;2022-12-05T14:18:19;16.67;;;11.48;;
10769;SDS011;5437;50.852;4.438;2022-12-05T14:25:58;16.52;;;11.82;;
10769;SDS011;5437;50.852;4.438;2022-12-05T14:31:02;15.35;;;12.10;;
10769;SDS011;5437;50.852;4.438;2022-12-05T14:33:30;16.77;;;12.50;;
10769;SDS011;5437;50.852;4.438;2022-12-05T14:35:57;16.92;;;12.63;;
10769;SDS011;5437;50.852;4.438;2022-12-05T14:38:30;18.40;;;13.20;;
10769;SDS011;5437;50.852;4.438;2022-12-05T14:41:10;15.77;;;12.30;;
10769;SDS011;5437;50.852;4.438;2022-12-05T14:43:36;17.73;;;13.00;;
10769;SDS011;5437;50.852;4.438;2022-12-05T14:46:06;17.92;;;13.20;;
10769;SDS011;5437;50.852;4.438;2022-12-05T14:48:37;18.58;;;13.65;;
10769;SDS011;5437;50.852;4.438;2022-12-05T14:53:49;18.05;;;12.85;;
10769;SDS011;5437;50.852;4.438;2022-12-05T14:56:19;18.25;;;13.18;;
10769;SDS011;5437;50.852;4.438;2022-12-05T15:01:20;18.35;;;12.73;;
10769;SDS011;5437;50.852;4.438;2022-12-05T15:06:22;17.13;;;12.43;;
10769;SDS011;5437;50.852;4.438;2022-12-05T15:08:50;16.58;;;12.43;;
10769;SDS011;5437;50.852;4.438;2022-12-05T15:11:17;17.73;;;12.38;;
10769;SDS011;5437;50.852;4.438;2022-12-05T15:13:53;18.27;;;12.63;;
10769;SDS011;5437;50.852;4.438;2022-12-05T15:16:21;20.17;;;13.13;;
10769;SDS011;5437;50.852;4.438;2022-12-05T15:18:48;18.63;;;13.07;;
10769;SDS011;5437;50.852;4.438;2022-12-05T15:22:01;18.42;;;13.07;;
10769;SDS011;5437;50.852;4.438;2022-12-05T15:24:03;22.30;;;13.68;;
10769;SDS011;5437;50.852;4.438;2022-12-05T15:29:09;18.38;;;13.38;;
10769;SDS011;5437;50.852;4.438;2022-12-05T15:31:37;18.67;;;12.65;;
10769;SDS011;5437;50.852;4.438;2022-12-05T15:34:27;20.05;;;13.23;;
10769;SDS011;5437;50.852;4.438;2022-12-05T15:36:54;19.88;;;13.38;;
10769;SDS011;5437;50.852;4.438;2022-12-05T15:39:22;22.02;;;15.20;;
10769;SDS011;5437;50.852;4.438;2022-12-05T15:41:50;21.92;;;15.15;;
10769;SDS011;5437;50.852;4.438;2022-12-05T15:44:17;24.15;;;15.93;;
10769;SDS011;5437;50.852;4.438;2022-12-05T15:46:43;22.73;;;15.60;;
10769;SDS011;5437;50.852;4.438;2022-12-05T15:49:16;21.98;;;15.02;;
10769;SDS011;5437;50.852;4.438;2022-12-05T15:51:45;25.35;;;15.15;;
10769;SDS011;5437;50.852;4.438;2022-12-05T15:54:14;21.00;;;14.95;;
10769;SDS011;5437;50.852;4.438;2022-12-05T15:56:53;23.60;;;15.55;;
10769;SDS011;5437;50.852;4.438;2022-12-05T15:59:42;23.00;;;16.25;;
10769;SDS011;5437;50.852;4.438;2022-12-05T16:02:12;25.15;;;15.57;;
10769;SDS011;5437;50.852;4.438;2022-12-05T16:04:44;24.27;;;16.45;;
10769;SDS011;5437;50.852;4.438;2022-12-05T16:07:11;25.73;;;17.73;;
10769;SDS011;5437;50.852;4.438;2022-12-05T16:09:39;23.75;;;17.27;;
10769;SDS011;5437;50.852;4.438;2022-12-05T16:12:14;24.17;;;16.15;;
10769;SDS011;5437;50.852;4.438;2022-12-05T16:14:41;24.95;;;18.05;;
10769;SDS011;5437;50.852;4.438;2022-12-05T16:17:09;25.50;;;17.33;;
10769;SDS011;5437;50.852;4.438;2022-12-05T16:19:38;26.70;;;17.15;;
10769;SDS011;5437;50.852;4.438;2022-12-05T16:22:13;28.25;;;18.02;;
10769;SDS011;5437;50.852;4.438;2022-12-05T16:24:46;27.38;;;16.77;;
10769;SDS011;5437;50.852;4.438;2022-12-05T16:27:16;28.98;;;18.02;;
10769;SDS011;5437;50.852;4.438;2022-12-05T16:29:42;28.98;;;18.45;;
10769;SDS011;5437;50.852;4.438;2022-12-05T16:32:20;28.13;;;18.23;;
10769;SDS011;5437;50.852;4.438;2022-12-05T16:34:48;32.55;;;19.77;;
10769;SDS011;5437;50.852;4.438;2022-12-05T16:37:16;32.00;;;20.50;;
10769;SDS011;5437;50.852;4.438;2022-12-05T16:39:43;33.38;;;20.33;;
10769;SDS011;5437;50.852;4.438;2022-12-05T16:42:26;36.55;;;21.92;;
10769;SDS011;5437;50.852;4.438;2022-12-05T16:47:26;34.00;;;21.27;;
10769;SDS011;5437;50.852;4.438;2022-12-05T16:52:46;29.92;;;19.70;;
10769;SDS011;5437;50.852;4.438;2022-12-05T16:55:12;31.55;;;20.73;;
10769;SDS011;5437;50.852;4.438;2022-12-05T16:57:38;32.53;;;21.10;;
10769;SDS011;5437;50.852;4.438;2022-12-05T17:00:05;30.65;;;19.77;;
10769;SDS011;5437;50.852;4.438;2022-12-05T17:02:31;31.45;;;20.75;;
10769;SDS011;5437;50.852;4.438;2022-12-05T17:04:58;33.58;;;20.83;;
10769;SDS011;5437;50.852;4.438;2022-12-05T17:07:27;32.20;;;20.58;;
10769;SDS011;5437;50.852;4.438;2022-12-05T17:09:53;32.88;;;20.95;;